createdAt,value
2019-05-06T00:00:35.630Z,20.05
2019-05-06T00:03:04.874Z,20.88
2019-05-06T00:05:34.108Z,15.80
2019-05-06T00:08:03.751Z,23.18
2019-05-06T00:10:31.347Z,21.45
2019-05-06T00:12:58.562Z,19.35
2019-05-06T00:15:25.814Z,26.20
2019-05-06T00:17:53.916Z,26.90
2019-05-06T00:20:24.388Z,21.93
2019-05-06T00:22:54.591Z,22.07
2019-05-06T00:25:26.632Z,18.90
2019-05-06T00:28:13.627Z,18.40
2019-05-06T00:30:43.874Z,15.18
2019-05-06T00:33:13.300Z,16.67
2019-05-06T00:35:40.375Z,13.78
2019-05-06T00:38:07.638Z,14.53
2019-05-06T00:40:36.740Z,15.25
2019-05-06T00:43:05.774Z,17.55
2019-05-06T00:45:34.098Z,12.40
2019-05-06T00:48:01.761Z,13.15
2019-05-06T00:50:29.027Z,13.20
2019-05-06T00:52:57.193Z,13.55
2019-05-06T00:55:24.520Z,17.07
2019-05-06T00:57:51.732Z,16.85
2019-05-06T01:00:19.089Z,17.95
2019-05-06T01:02:46.439Z,17.35
2019-05-06T01:05:14.007Z,17.82
2019-05-06T01:07:41.403Z,16.35
2019-05-06T01:10:08.691Z,12.47
2019-05-06T01:12:39.230Z,16.27
2019-05-06T01:15:08.317Z,12.05
2019-05-06T01:17:35.590Z,11.57
2019-05-06T01:20:04.350Z,12.37
2019-05-06T01:22:34.102Z,16.35
2019-05-06T01:25:00.844Z,15.83
2019-05-06T01:27:28.118Z,11.00
2019-05-06T01:29:55.427Z,14.10
2019-05-06T01:32:23.680Z,13.32
2019-05-06T01:34:51.017Z,14.70
2019-05-06T01:37:18.364Z,12.28
2019-05-06T01:40:05.095Z,9.18
2019-05-06T01:42:37.105Z,10.35
2019-05-06T01:45:06.192Z,10.78
2019-05-06T01:47:34.558Z,12.00
2019-05-06T01:50:04.499Z,10.45
2019-05-06T01:52:31.886Z,7.90
2019-05-06T01:54:59.123Z,15.48
2019-05-06T01:57:26.454Z,8.58
2019-05-06T01:59:54.100Z,10.68
2019-05-06T02:02:23.701Z,9.00
2019-05-06T02:04:50.654Z,10.45
2019-05-06T02:07:17.930Z,12.33
2019-05-06T02:09:45.222Z,12.40
2019-05-06T02:12:13.771Z,13.43
2019-05-06T02:14:43.497Z,14.15
2019-05-06T02:17:10.332Z,11.75
2019-05-06T02:19:37.935Z,10.63
2019-05-06T02:22:18.585Z,12.82
2019-05-06T02:24:53.643Z,11.35
2019-05-06T02:27:21.295Z,11.95
2019-05-06T02:29:51.715Z,10.95
2019-05-06T02:32:31.196Z,12.05
2019-05-06T02:35:06.097Z,9.90
2019-05-06T02:37:46.600Z,8.03
2019-05-06T02:40:24.243Z,11.03
2019-05-06T02:42:49.973Z,10.68
2019-05-06T02:45:18.522Z,12.30
2019-05-06T02:48:04.403Z,9.70
2019-05-06T02:50:45.612Z,10.23
2019-05-06T02:55:43.079Z,12.00
2019-05-06T02:58:10.533Z,12.47
2019-05-06T03:00:37.829Z,12.33
2019-05-06T03:03:05.066Z,12.25
2019-05-06T03:05:33.313Z,10.68
2019-05-06T03:08:03.279Z,13.32
2019-05-06T03:10:32.761Z,12.78
2019-05-06T03:12:58.888Z,15.53
2019-05-06T03:15:27.917Z,16.25
2019-05-06T03:17:55.591Z,15.75
2019-05-06T03:20:38.626Z,11.28
2019-05-06T03:23:23.717Z,9.73
2019-05-06T03:25:53.337Z,8.20
2019-05-06T03:28:22.553Z,10.13
2019-05-06T03:30:50.083Z,8.65
2019-05-06T03:33:54.280Z,9.30
2019-05-06T03:36:00.348Z,8.28
2019-05-06T03:38:15.965Z,8.43
2019-05-06T03:40:45.913Z,8.43
2019-05-06T03:43:13.676Z,7.65
2019-05-06T03:45:49.108Z,7.62
2019-05-06T03:48:18.128Z,10.35
2019-05-06T03:50:45.410Z,11.08
2019-05-06T03:53:14.045Z,10.25
2019-05-06T03:55:43.791Z,12.10
2019-05-06T03:58:13.238Z,10.13
2019-05-06T04:00:40.189Z,16.12
2019-05-06T04:03:07.452Z,12.75
2019-05-06T04:05:34.722Z,8.83
2019-05-06T04:08:03.782Z,8.75
2019-05-06T04:10:33.815Z,9.58
2019-05-06T04:13:03.935Z,14.63
2019-05-06T04:15:54.014Z,15.35
2019-05-06T04:18:23.847Z,20.40
2019-05-06T04:20:53.337Z,21.87
2019-05-06T04:23:23.464Z,23.77
2019-05-06T04:25:52.893Z,23.12
2019-05-06T04:28:23.783Z,27.95
2019-05-06T04:30:51.138Z,21.23
2019-05-06T04:33:18.401Z,18.90
2019-05-06T04:35:45.633Z,19.60
2019-05-06T04:38:13.927Z,18.52
2019-05-06T04:40:44.017Z,16.80
2019-05-06T04:43:13.461Z,18.75
2019-05-06T04:45:43.307Z,16.35
2019-05-06T04:48:09.830Z,12.23
2019-05-06T04:50:37.068Z,11.68
2019-05-06T04:53:05.410Z,11.35
2019-05-06T04:55:33.705Z,13.70
2019-05-06T04:58:04.029Z,8.43
2019-05-06T05:00:33.045Z,13.43
2019-05-06T05:03:02.868Z,32.85
2019-05-06T05:05:29.535Z,23.77
2019-05-06T05:07:57.037Z,20.35
2019-05-06T05:10:26.072Z,12.15
2019-05-06T05:12:55.172Z,8.08
2019-05-06T05:15:24.258Z,10.10
2019-05-06T05:18:12.983Z,11.45
2019-05-06T05:20:45.644Z,8.60
2019-05-06T05:23:09.385Z,7.62
2019-05-06T05:25:36.908Z,4.47
2019-05-06T05:28:04.232Z,5.65
2019-05-06T05:30:32.819Z,6.97
2019-05-06T05:33:00.281Z,5.00
2019-05-06T05:35:29.311Z,4.97
2019-05-06T05:37:56.583Z,8.55
2019-05-06T05:40:23.793Z,4.87
2019-05-06T05:42:53.116Z,7.20
2019-05-06T05:45:22.151Z,10.58
2019-05-06T05:47:49.492Z,10.93
2019-05-06T05:50:18.631Z,10.72
2019-05-06T05:52:45.834Z,11.30
2019-05-06T05:55:13.121Z,5.42
2019-05-06T05:57:43.229Z,8.35
2019-05-06T06:00:12.781Z,3.90
2019-05-06T06:02:39.655Z,2.80
2019-05-06T06:05:06.944Z,7.33
2019-05-06T06:07:34.191Z,3.62
2019-05-06T06:10:09.054Z,3.58
2019-05-06T06:12:36.293Z,4.60
2019-05-06T06:15:06.033Z,3.15
2019-05-06T06:17:51.898Z,10.70
2019-05-06T06:20:38.754Z,6.87
2019-05-06T06:23:07.844Z,7.05
2019-05-06T06:25:35.296Z,5.05
2019-05-06T06:28:02.744Z,4.00
2019-05-06T06:30:33.154Z,8.83
2019-05-06T06:33:02.429Z,8.40
2019-05-06T06:35:33.931Z,12.33
2019-05-06T06:38:21.108Z,9.80
2019-05-06T06:40:48.743Z,9.50
2019-05-06T06:43:17.684Z,3.65
2019-05-06T06:45:45.376Z,4.08
2019-05-06T06:48:13.725Z,6.67
2019-05-06T06:50:42.622Z,3.00
2019-05-06T06:53:12.169Z,4.12
2019-05-06T06:55:42.566Z,4.40
2019-05-06T06:58:12.005Z,2.47
2019-05-06T07:00:42.521Z,3.55
2019-05-06T07:03:12.384Z,3.00
2019-05-06T07:05:42.338Z,5.55
2019-05-06T07:08:09.718Z,3.80
2019-05-06T07:10:38.790Z,4.37
2019-05-06T07:13:07.112Z,2.45
2019-05-06T07:15:34.344Z,2.77
2019-05-06T07:18:02.299Z,10.03
2019-05-06T07:20:35.107Z,7.12
2019-05-06T07:23:04.628Z,1.92
2019-05-06T07:25:33.655Z,8.13
2019-05-06T07:28:02.906Z,128.45
2019-05-06T07:30:33.524Z,15.48
2019-05-06T07:33:03.465Z,4.17
2019-05-06T07:35:38.561Z,2.42
2019-05-06T07:37:59.546Z,4.22
2019-05-06T07:40:26.789Z,3.33
2019-05-06T07:42:55.810Z,3.87
2019-05-06T07:45:27.930Z,7.75
2019-05-06T07:47:59.816Z,19.98
2019-05-06T07:50:27.066Z,2.45
2019-05-06T07:53:06.564Z,3.30
2019-05-06T07:55:34.001Z,4.08
2019-05-06T07:58:02.902Z,5.80
2019-05-06T08:00:32.561Z,4.03
2019-05-06T08:02:59.371Z,2.10
2019-05-06T08:05:26.610Z,3.70
2019-05-06T08:07:55.172Z,5.33
2019-05-06T08:10:22.573Z,5.85
2019-05-06T08:12:49.826Z,3.37
2019-05-06T08:15:17.150Z,4.75
2019-05-06T08:17:44.370Z,4.45
2019-05-06T08:20:12.926Z,4.47
2019-05-06T08:22:56.486Z,3.15
2019-05-06T08:25:23.625Z,5.15
2019-05-06T08:27:53.056Z,3.08
2019-05-06T08:30:20.011Z,3.55
2019-05-06T08:32:47.336Z,5.58
2019-05-06T08:35:16.084Z,3.40
2019-05-06T08:37:44.364Z,5.45
2019-05-06T08:40:12.590Z,4.60
2019-05-06T08:42:42.372Z,8.45
2019-05-06T08:45:09.183Z,2.65
2019-05-06T08:47:36.406Z,3.08
2019-05-06T08:50:06.731Z,4.08
2019-05-06T08:52:54.039Z,3.27
2019-05-06T08:55:39.491Z,3.72
2019-05-06T08:58:06.842Z,9.20
2019-05-06T09:00:35.856Z,5.28
2019-05-06T09:03:04.441Z,5.03
2019-05-06T09:05:33.072Z,5.25
2019-05-06T09:08:00.498Z,4.17
2019-05-06T09:10:27.728Z,2.90
2019-05-06T09:12:55.023Z,17.60
2019-05-06T09:15:22.234Z,9.30
2019-05-06T09:17:49.489Z,4.58
2019-05-06T09:20:16.766Z,5.08
2019-05-06T09:22:44.285Z,2.65
2019-05-06T09:25:12.880Z,9.08
2019-05-06T09:27:47.845Z,5.30
2019-05-06T09:30:22.788Z,5.45
2019-05-06T09:32:49.228Z,5.28
2019-05-06T09:35:16.433Z,6.50
2019-05-06T09:37:43.689Z,3.85
2019-05-06T09:40:12.683Z,3.83
2019-05-06T09:42:40.073Z,5.10
2019-05-06T09:45:07.333Z,17.75
2019-05-06T09:47:42.402Z,24.87
2019-05-06T09:50:12.773Z,14.63
2019-05-06T09:52:42.511Z,10.57
2019-05-06T09:55:16.884Z,48.17
2019-05-06T09:58:03.168Z,22.52
2019-05-06T10:00:32.973Z,11.33
2019-05-06T10:03:02.944Z,8.53
2019-05-06T10:05:29.337Z,5.40
2019-05-06T10:07:56.635Z,4.60
2019-05-06T10:10:23.985Z,19.30
2019-05-06T10:12:53.003Z,7.90
2019-05-06T10:15:20.318Z,11.12
2019-05-06T10:17:49.398Z,23.00
2019-05-06T10:20:16.594Z,18.02
2019-05-06T10:22:43.900Z,5.15
2019-05-06T10:25:12.261Z,13.83
2019-05-06T10:27:42.222Z,11.53
2019-05-06T10:30:14.265Z,9.80
2019-05-06T10:32:46.408Z,34.13
2019-05-06T10:35:13.778Z,10.95
2019-05-06T10:37:54.972Z,6.33
2019-05-06T10:42:52.329Z,4.72
2019-05-06T10:45:21.641Z,13.35
2019-05-06T10:47:48.868Z,46.13
2019-05-06T10:50:16.453Z,38.50
2019-05-06T10:52:45.561Z,5.92
2019-05-06T10:55:12.834Z,4.42
2019-05-06T10:57:43.125Z,5.95
2019-05-06T11:00:12.299Z,6.78
2019-05-06T11:02:47.359Z,2.80
2019-05-06T11:05:14.719Z,9.98
2019-05-06T11:07:43.110Z,17.82
2019-05-06T11:10:21.627Z,49.20
2019-05-06T11:12:39.611Z,28.60
2019-05-06T11:15:06.848Z,44.15
2019-05-06T11:17:34.122Z,6.20
2019-05-06T11:20:06.172Z,6.62
2019-05-06T11:22:32.644Z,15.88
2019-05-06T11:25:00.090Z,38.28
2019-05-06T11:27:32.407Z,9.43
2019-05-06T11:29:58.861Z,11.18
2019-05-06T11:32:44.541Z,11.90
2019-05-06T11:35:13.693Z,4.45
2019-05-06T11:37:49.717Z,39.65
2019-05-06T11:40:16.476Z,31.62
2019-05-06T11:42:43.692Z,18.77
2019-05-06T11:45:12.179Z,23.35
2019-05-06T11:47:41.949Z,27.40
2019-05-06T11:50:09.369Z,16.65
2019-05-06T11:52:37.657Z,8.15
2019-05-06T11:55:05.803Z,8.60
2019-05-06T11:57:33.066Z,18.82
2019-05-06T12:00:00.392Z,17.90
2019-05-06T12:02:27.953Z,7.42
2019-05-06T12:04:55.168Z,10.10
2019-05-06T12:07:24.568Z,17.05
2019-05-06T12:09:53.994Z,12.70
2019-05-06T12:12:23.135Z,7.17
2019-05-06T12:14:49.652Z,12.37
2019-05-06T12:17:16.874Z,11.20
2019-05-06T12:19:44.090Z,4.00
2019-05-06T12:22:12.610Z,3.67
2019-05-06T12:24:45.975Z,7.67
2019-05-06T12:27:15.014Z,6.03
2019-05-06T12:29:42.920Z,3.22
2019-05-06T12:32:24.029Z,6.12
2019-05-06T12:34:52.479Z,8.15
2019-05-06T12:37:21.615Z,3.95
2019-05-06T12:39:53.193Z,1.60
2019-05-06T12:42:29.211Z,2.67
2019-05-06T12:44:58.284Z,3.35
2019-05-06T12:47:45.285Z,2.45
2019-05-06T12:50:12.593Z,2.70
2019-05-06T12:52:39.871Z,2.67
2019-05-06T12:55:18.392Z,5.20
2019-05-06T12:57:36.681Z,4.05
2019-05-06T13:00:05.735Z,1.67
2019-05-06T13:02:33.057Z,4.15
2019-05-06T13:05:03.224Z,1.65
2019-05-06T13:07:34.188Z,5.75
2019-05-06T13:10:02.806Z,3.17
2019-05-06T13:12:33.494Z,5.05
2019-05-06T13:15:00.113Z,1.87
2019-05-06T13:17:29.114Z,0.45
2019-05-06T13:19:56.742Z,2.70
2019-05-06T13:22:28.653Z,0.82
2019-05-06T13:24:55.846Z,4.30
2019-05-06T13:27:24.466Z,1.40
2019-05-06T13:29:52.844Z,2.37
2019-05-06T13:32:21.879Z,2.92
2019-05-06T13:34:49.156Z,1.27
2019-05-06T13:37:16.457Z,2.40
2019-05-06T13:39:43.879Z,0.82
2019-05-06T13:42:13.237Z,4.42
2019-05-06T13:44:42.579Z,1.85
2019-05-06T13:47:12.131Z,2.72
2019-05-06T13:49:42.859Z,2.02
2019-05-06T13:52:12.539Z,6.42
2019-05-06T13:54:39.439Z,7.50
2019-05-06T13:57:06.658Z,2.40
2019-05-06T13:59:35.123Z,2.55
2019-05-06T14:02:10.634Z,2.72
2019-05-06T14:04:37.836Z,6.70
2019-05-06T14:07:07.432Z,21.07
2019-05-06T14:09:39.946Z,2.33
2019-05-06T14:12:03.189Z,3.45
2019-05-06T14:14:32.259Z,3.12
2019-05-06T14:16:59.563Z,1.80
2019-05-06T14:19:26.801Z,3.70
2019-05-06T14:21:54.065Z,8.38
2019-05-06T14:24:22.171Z,13.32
2019-05-06T14:26:58.070Z,2.20
2019-05-06T14:29:25.051Z,2.00
2019-05-06T14:31:54.421Z,5.97
2019-05-06T14:34:22.995Z,41.60
2019-05-06T14:36:50.434Z,28.25
2019-05-06T14:39:19.456Z,40.10
2019-05-06T14:41:48.546Z,36.30
2019-05-06T14:44:15.813Z,43.68
2019-05-06T14:46:50.616Z,52.95
2019-05-06T14:49:18.115Z,27.00
2019-05-06T14:51:45.654Z,45.98
2019-05-06T14:54:14.801Z,26.45
2019-05-06T14:56:43.995Z,14.87
2019-05-06T14:59:12.581Z,5.05
2019-05-06T15:01:40.360Z,10.72
2019-05-06T15:04:07.653Z,8.90
2019-05-06T15:06:34.919Z,31.97
2019-05-06T15:09:03.794Z,25.60
2019-05-06T15:11:32.946Z,16.75
2019-05-06T15:14:03.299Z,21.27
2019-05-06T15:16:29.187Z,13.18
2019-05-06T15:18:56.486Z,21.45
2019-05-06T15:21:37.110Z,16.05
2019-05-06T15:23:53.073Z,34.48
2019-05-06T15:26:22.920Z,34.90
2019-05-06T15:28:52.685Z,11.03
2019-05-06T15:31:24.093Z,19.23
2019-05-06T15:33:57.521Z,14.07
2019-05-06T15:36:44.260Z,15.63
2019-05-06T15:39:13.178Z,29.42
2019-05-06T15:41:42.519Z,34.58
2019-05-06T15:44:09.606Z,21.35
2019-05-06T15:46:36.832Z,30.52
2019-05-06T15:49:05.047Z,20.77
2019-05-06T15:51:34.883Z,24.80
2019-05-06T15:54:04.095Z,19.40
2019-05-06T15:56:32.922Z,32.45
2019-05-06T15:59:02.519Z,17.05
2019-05-06T16:01:29.471Z,34.00
2019-05-06T16:03:56.997Z,23.32
2019-05-06T16:06:24.280Z,17.90
2019-05-06T16:08:52.637Z,16.50
2019-05-06T16:11:22.168Z,30.00
2019-05-06T16:13:49.108Z,32.75
2019-05-06T16:16:16.336Z,7.67
2019-05-06T16:18:43.564Z,11.33
2019-05-06T16:21:10.853Z,12.23
2019-05-06T16:23:48.852Z,8.10
2019-05-06T16:26:16.118Z,8.75
2019-05-06T16:28:45.020Z,13.85
2019-05-06T16:31:12.990Z,13.38
2019-05-06T16:33:40.348Z,21.17
2019-05-06T16:36:07.994Z,17.42
2019-05-06T16:38:35.239Z,18.20
2019-05-06T16:41:12.865Z,16.57
2019-05-06T16:43:34.343Z,7.90
2019-05-06T16:46:03.183Z,6.97
2019-05-06T16:48:30.511Z,10.60
2019-05-06T16:50:57.900Z,7.58
2019-05-06T16:53:25.242Z,15.80
2019-05-06T16:55:55.582Z,14.93
2019-05-06T16:58:45.114Z,15.25
2019-05-06T17:01:14.933Z,15.55
2019-05-06T17:03:52.541Z,12.35
2019-05-06T17:06:24.916Z,15.40
2019-05-06T17:08:52.833Z,14.75
2019-05-06T17:11:28.066Z,27.07
2019-05-06T17:13:49.731Z,26.17
2019-05-06T17:16:17.478Z,28.35
2019-05-06T17:18:44.788Z,38.50
2019-05-06T17:21:13.100Z,28.70
2019-05-06T17:23:42.321Z,36.98
2019-05-06T17:26:09.632Z,27.30
2019-05-06T17:28:44.932Z,32.67
2019-05-06T17:31:14.453Z,27.93
2019-05-06T17:33:43.656Z,32.63
2019-05-06T17:36:19.783Z,33.65
2019-05-06T17:38:48.854Z,51.08
2019-05-06T17:41:16.203Z,36.53
2019-05-06T17:43:44.222Z,56.63
2019-05-06T17:46:13.769Z,89.55
2019-05-06T17:48:44.407Z,32.95
2019-05-06T17:51:13.910Z,56.28
2019-05-06T17:53:55.698Z,44.08
2019-05-06T17:56:23.157Z,28.75
2019-05-06T17:58:52.953Z,26.23
2019-05-06T18:01:23.287Z,18.92
2019-05-06T18:03:52.538Z,15.72
2019-05-06T18:06:22.933Z,12.65
2019-05-06T18:08:52.691Z,16.10
2019-05-06T18:11:22.174Z,20.68
2019-05-06T18:13:49.308Z,36.05
2019-05-06T18:16:18.006Z,34.73
2019-05-06T18:18:46.536Z,29.95
2019-05-06T18:21:14.084Z,25.82
2019-05-06T18:23:41.471Z,56.92
2019-05-06T18:26:09.101Z,55.80
2019-05-06T18:28:36.548Z,31.77
2019-05-06T18:31:04.025Z,18.25
2019-05-06T18:33:32.587Z,15.78
2019-05-06T18:36:02.412Z,12.98
2019-05-06T18:38:32.920Z,16.45
2019-05-06T18:41:01.979Z,13.38
2019-05-06T18:43:29.857Z,18.77
2019-05-06T18:45:57.201Z,21.20
2019-05-06T18:48:27.889Z,29.55
2019-05-06T18:50:54.062Z,34.53
2019-05-06T18:53:22.606Z,30.02
2019-05-06T18:55:50.425Z,29.85
2019-05-06T18:58:22.278Z,20.97
2019-05-06T19:00:49.699Z,21.57
2019-05-06T19:03:17.411Z,17.75
2019-05-06T19:05:45.068Z,23.73
2019-05-06T19:08:24.285Z,27.87
2019-05-06T19:10:53.175Z,28.10
2019-05-06T19:13:22.368Z,33.02
2019-05-06T19:15:49.789Z,27.80
2019-05-06T19:18:18.053Z,21.97
2019-05-06T19:20:46.362Z,30.62
2019-05-06T19:23:14.791Z,28.67
2019-05-06T19:25:42.913Z,33.10
2019-05-06T19:28:12.122Z,26.00
2019-05-06T19:30:41.320Z,31.65
2019-05-06T19:33:09.198Z,30.55
2019-05-06T19:35:37.033Z,27.32
2019-05-06T19:38:05.266Z,32.42
2019-05-06T19:40:34.277Z,29.07
2019-05-06T19:43:02.966Z,32.15
2019-05-06T19:45:34.441Z,26.25
2019-05-06T19:48:02.905Z,26.55
2019-05-06T19:50:30.400Z,30.57
2019-05-06T19:52:57.730Z,39.75
2019-05-06T19:55:25.038Z,43.00
2019-05-06T19:57:52.667Z,39.13
2019-05-06T20:00:22.714Z,42.50
2019-05-06T20:02:52.026Z,56.33
2019-05-06T20:05:24.975Z,62.03
2019-05-06T20:07:54.175Z,50.10
2019-05-06T20:10:29.345Z,65.12
2019-05-06T20:13:04.505Z,46.28
2019-05-06T20:15:34.158Z,55.67
2019-05-06T20:20:34.897Z,63.05
2019-05-06T20:23:02.690Z,57.85
2019-05-06T20:25:31.372Z,46.75
2019-05-06T20:27:59.175Z,45.98
2019-05-06T20:30:28.349Z,34.63
2019-05-06T20:32:55.578Z,28.20
2019-05-06T20:35:22.908Z,33.78
2019-05-06T20:37:50.171Z,38.88
2019-05-06T20:40:19.639Z,34.83
2019-05-06T20:42:47.878Z,27.50
2019-05-06T20:45:15.200Z,24.72
2019-05-06T20:47:42.893Z,32.90
2019-05-06T20:50:10.619Z,32.08
2019-05-06T20:52:37.929Z,28.57
2019-05-06T20:55:12.746Z,27.07
2019-05-06T20:57:34.237Z,21.62
2019-05-06T21:00:03.570Z,20.35
2019-05-06T21:02:32.621Z,18.10
2019-05-06T21:05:02.073Z,19.23
2019-05-06T21:07:29.187Z,22.52
2019-05-06T21:09:58.471Z,21.80
2019-05-06T21:12:25.739Z,16.15
2019-05-06T21:14:54.660Z,18.12
2019-05-06T21:17:22.863Z,20.48
2019-05-06T21:19:51.959Z,24.23
2019-05-06T21:22:19.321Z,30.52
2019-05-06T21:24:46.571Z,37.83
2019-05-06T21:27:14.479Z,35.15
2019-05-06T21:29:42.090Z,26.85
2019-05-06T21:32:09.420Z,24.55
2019-05-06T21:34:36.637Z,25.02
2019-05-06T21:37:03.924Z,25.82
2019-05-06T21:39:32.772Z,24.00
2019-05-06T21:42:00.267Z,31.50
2019-05-06T21:44:27.874Z,26.95
2019-05-06T21:46:55.157Z,21.62
2019-05-06T21:49:22.953Z,17.20
2019-05-06T21:51:51.523Z,16.32
2019-05-06T21:54:18.743Z,12.03
2019-05-06T21:56:45.973Z,10.10
2019-05-06T21:59:13.256Z,11.78
2019-05-06T22:01:43.040Z,19.82
2019-05-06T22:04:12.543Z,16.00
2019-05-06T22:06:39.163Z,21.50
2019-05-06T22:09:07.343Z,21.00
2019-05-06T22:11:34.754Z,14.05
2019-05-06T22:14:02.046Z,13.10
2019-05-06T22:16:29.381Z,10.98
2019-05-06T22:18:56.617Z,9.63
2019-05-06T22:21:24.737Z,7.40
2019-05-06T22:23:59.419Z,7.12
2019-05-06T22:26:27.344Z,7.15
2019-05-06T22:28:54.567Z,13.28
2019-05-06T22:31:24.172Z,7.50
2019-05-06T22:33:51.128Z,12.80
2019-05-06T22:36:18.384Z,11.12
2019-05-06T22:38:45.644Z,12.37
2019-05-06T22:41:12.967Z,11.15
2019-05-06T22:43:42.263Z,9.03
2019-05-06T22:46:09.735Z,10.18
2019-05-06T22:48:37.034Z,9.65
2019-05-06T22:51:04.301Z,7.10
2019-05-06T22:53:32.842Z,8.78
2019-05-06T22:56:02.707Z,9.88
2019-05-06T22:58:30.019Z,10.28
2019-05-06T23:00:57.818Z,11.40
2019-05-06T23:03:27.084Z,8.33
2019-05-06T23:05:54.303Z,10.72
2019-05-06T23:08:21.617Z,9.60
2019-05-06T23:10:49.544Z,6.55
2019-05-06T23:13:17.130Z,6.80
2019-05-06T23:15:44.406Z,9.60
2019-05-06T23:18:11.756Z,6.65
2019-05-06T23:20:39.078Z,5.83
2019-05-06T23:23:06.298Z,7.58
2019-05-06T23:25:33.604Z,5.03
2019-05-06T23:28:02.771Z,7.45
2019-05-06T23:30:30.071Z,4.92
2019-05-06T23:32:57.359Z,6.35
2019-05-06T23:35:24.601Z,5.60
2019-05-06T23:38:12.082Z,11.65
2019-05-06T23:40:57.613Z,7.75
2019-05-06T23:43:43.467Z,12.90
2019-05-06T23:46:32.388Z,8.83
2019-05-06T23:49:18.234Z,6.83
2019-05-06T23:52:03.714Z,8.80
2019-05-06T23:54:49.552Z,9.00
2019-05-06T23:57:16.558Z,8.00
2019-05-06T23:59:43.812Z,10.45
